createdAt,value
2022-11-30T00:01:24.920Z,1.60
2022-11-30T00:03:57.298Z,1.62
2022-11-30T00:06:26.034Z,1.81
2022-11-30T00:08:57.986Z,1.84
2022-11-30T00:11:28.595Z,1.85
2022-11-30T00:13:56.428Z,1.85
2022-11-30T00:16:24.270Z,1.84
2022-11-30T00:18:51.964Z,1.84
2022-11-30T00:21:19.720Z,1.72
2022-11-30T00:23:48.190Z,1.89
2022-11-30T00:26:18.979Z,1.92
2022-11-30T00:28:47.706Z,1.91
2022-11-30T00:31:18.316Z,1.88
2022-11-30T00:33:45.887Z,1.94
2022-11-30T00:36:19.715Z,1.95
2022-11-30T00:38:48.468Z,1.90
2022-11-30T00:41:17.093Z,1.86
2022-11-30T00:43:45.255Z,1.98
2022-11-30T00:46:13.237Z,1.87
2022-11-30T00:48:41.771Z,1.89
2022-11-30T00:51:11.429Z,1.82
2022-11-30T00:53:40.035Z,1.69
2022-11-30T00:56:08.961Z,1.72
2022-11-30T00:58:36.156Z,1.64
2022-11-30T01:01:03.724Z,1.78
2022-11-30T01:03:31.064Z,1.84
2022-11-30T01:06:10.945Z,1.51
2022-11-30T01:08:38.847Z,1.55
2022-11-30T01:11:27.550Z,1.43
2022-11-30T01:13:57.251Z,1.41
2022-11-30T01:16:29.201Z,1.50
2022-11-30T01:18:57.208Z,1.52
2022-11-30T01:21:28.670Z,1.54
2022-11-30T01:23:56.370Z,1.66
2022-11-30T01:26:24.366Z,1.54
2022-11-30T01:28:54.353Z,1.52
2022-11-30T01:31:24.813Z,1.54
2022-11-30T01:33:55.198Z,1.56
2022-11-30T01:36:26.490Z,1.64
2022-11-30T01:38:57.122Z,1.57
2022-11-30T01:41:31.924Z,1.50
2022-11-30T01:44:26.227Z,1.44
2022-11-30T01:47:01.231Z,1.55
2022-11-30T01:49:51.527Z,1.65
2022-11-30T01:52:23.341Z,1.61
2022-11-30T01:55:26.738Z,1.60
2022-11-30T01:58:05.395Z,1.49
2022-11-30T02:00:32.977Z,1.50
2022-11-30T02:03:25.072Z,1.51
2022-11-30T02:05:52.435Z,1.64
2022-11-30T02:08:20.466Z,1.68
2022-11-30T02:10:55.413Z,1.70
2022-11-30T02:14:08.416Z,1.69
2022-11-30T02:17:15.014Z,1.66
2022-11-30T02:20:19.691Z,1.67
2022-11-30T02:22:53.112Z,1.64
2022-11-30T02:25:52.557Z,1.68
2022-11-30T02:29:08.204Z,1.66
2022-11-30T02:31:54.455Z,1.58
2022-11-30T02:34:27.865Z,1.61
2022-11-30T02:36:58.393Z,1.44
2022-11-30T02:39:25.852Z,1.57
2022-11-30T02:41:53.513Z,1.65
2022-11-30T02:44:23.096Z,1.64
2022-11-30T02:47:10.899Z,1.58
2022-11-30T02:49:48.860Z,1.47
2022-11-30T02:52:19.874Z,1.57
2022-11-30T02:54:47.425Z,1.58
2022-11-30T02:57:15.218Z,1.66
2022-11-30T02:59:42.763Z,1.62
2022-11-30T03:02:10.188Z,1.70
2022-11-30T03:04:37.418Z,1.70
2022-11-30T03:07:05.011Z,1.66
2022-11-30T03:09:32.201Z,1.71
2022-11-30T03:11:59.662Z,1.57
2022-11-30T03:14:26.879Z,1.60
2022-11-30T03:16:54.346Z,1.62
2022-11-30T03:19:21.505Z,1.53
2022-11-30T03:21:49.137Z,1.56
2022-11-30T03:24:16.345Z,1.60
2022-11-30T03:26:44.157Z,1.65
2022-11-30T03:29:11.299Z,1.61
2022-11-30T03:31:38.744Z,1.63
2022-11-30T03:34:05.931Z,1.58
2022-11-30T03:36:33.524Z,1.63
2022-11-30T03:39:00.768Z,1.63
2022-11-30T03:41:28.229Z,1.65
2022-11-30T03:43:56.242Z,1.70
2022-11-30T03:46:23.828Z,1.74
2022-11-30T03:48:50.969Z,1.59
2022-11-30T03:51:18.700Z,1.57
2022-11-30T03:53:46.021Z,1.52
2022-11-30T03:56:14.516Z,1.57
2022-11-30T03:58:42.309Z,1.65
2022-11-30T04:01:17.053Z,1.63
2022-11-30T04:03:44.552Z,1.68
2022-11-30T04:06:13.308Z,1.63
2022-11-30T04:08:41.334Z,1.66
2022-11-30T04:11:09.838Z,1.65
2022-11-30T04:13:39.384Z,1.60
2022-11-30T04:16:07.865Z,1.63
2022-11-30T04:18:37.212Z,1.69
2022-11-30T04:21:06.735Z,1.65
2022-11-30T04:23:39.708Z,1.65
2022-11-30T04:26:12.298Z,1.56
2022-11-30T04:28:40.151Z,1.65
2022-11-30T04:31:07.769Z,1.73
2022-11-30T04:33:35.268Z,1.71
2022-11-30T04:36:07.391Z,1.78
2022-11-30T04:38:36.581Z,1.67
2022-11-30T04:41:09.013Z,1.75
2022-11-30T04:43:36.709Z,1.65
2022-11-30T04:46:06.098Z,1.80
2022-11-30T04:48:33.942Z,1.63
2022-11-30T04:51:07.901Z,1.49
2022-11-30T04:53:38.033Z,1.53
2022-11-30T04:56:11.139Z,1.50
2022-11-30T04:58:39.200Z,1.47
2022-11-30T05:01:07.810Z,1.49
2022-11-30T05:03:35.262Z,1.53
2022-11-30T05:06:03.878Z,1.56
2022-11-30T05:08:31.201Z,1.65
2022-11-30T05:10:58.988Z,1.68
2022-11-30T05:13:26.928Z,1.79
2022-11-30T05:15:54.915Z,1.75
2022-11-30T05:18:22.623Z,1.68
2022-11-30T05:20:52.943Z,1.64
2022-11-30T05:23:21.274Z,1.48
2022-11-30T05:25:49.298Z,1.52
2022-11-30T05:28:16.695Z,1.53
2022-11-30T05:30:44.508Z,1.53
2022-11-30T05:33:12.395Z,1.53
2022-11-30T05:35:39.900Z,1.60
2022-11-30T05:38:07.122Z,1.65
2022-11-30T05:40:35.035Z,1.63
2022-11-30T05:43:04.336Z,1.71
2022-11-30T05:45:32.089Z,1.83
2022-11-30T05:47:59.301Z,1.84
2022-11-30T05:50:26.771Z,1.88
2022-11-30T05:52:57.906Z,1.89
2022-11-30T05:55:25.609Z,1.80
2022-11-30T05:57:53.646Z,1.74
2022-11-30T06:00:22.130Z,1.63
2022-11-30T06:02:49.379Z,1.53
2022-11-30T06:05:17.004Z,1.42
2022-11-30T06:07:44.291Z,1.52
2022-11-30T06:10:12.468Z,1.29
2022-11-30T06:12:39.671Z,1.28
2022-11-30T06:15:08.719Z,1.25
2022-11-30T06:17:38.028Z,1.23
2022-11-30T06:20:07.919Z,0.92
2022-11-30T06:22:35.328Z,1.05
2022-11-30T06:25:02.897Z,1.11
2022-11-30T06:27:32.993Z,1.17
2022-11-30T06:30:00.520Z,1.18
2022-11-30T06:32:27.868Z,1.34
2022-11-30T06:34:55.402Z,1.38
2022-11-30T06:37:22.548Z,1.30
2022-11-30T06:40:05.900Z,1.38
2022-11-30T06:42:35.275Z,1.33
2022-11-30T06:45:04.106Z,1.16
2022-11-30T06:47:31.453Z,1.22
2022-11-30T06:49:58.934Z,1.26
2022-11-30T06:52:26.146Z,1.24
2022-11-30T06:54:53.596Z,1.17
2022-11-30T06:57:21.158Z,1.21
2022-11-30T06:59:48.572Z,1.26
2022-11-30T07:02:18.481Z,1.22
2022-11-30T07:04:47.366Z,1.12
2022-11-30T07:07:14.802Z,1.11
2022-11-30T07:09:42.414Z,1.19
2022-11-30T07:12:09.683Z,1.22
2022-11-30T07:14:37.264Z,1.17
2022-11-30T07:17:04.882Z,1.11
2022-11-30T07:19:35.901Z,1.12
2022-11-30T07:22:03.448Z,1.16
2022-11-30T07:24:49.534Z,1.17
2022-11-30T07:27:16.867Z,1.20
2022-11-30T07:29:44.522Z,1.05
2022-11-30T07:32:11.751Z,0.98
2022-11-30T07:34:39.298Z,0.93
2022-11-30T07:37:06.666Z,0.96
2022-11-30T07:39:34.157Z,1.13
2022-11-30T07:42:02.027Z,1.17
2022-11-30T07:44:29.482Z,1.14
2022-11-30T07:46:56.808Z,1.26
2022-11-30T07:49:24.261Z,1.54
2022-11-30T07:51:51.359Z,1.52
2022-11-30T07:54:19.116Z,1.69
2022-11-30T07:56:46.276Z,1.65
2022-11-30T07:59:13.771Z,1.82
2022-11-30T08:01:40.992Z,1.86
2022-11-30T08:04:08.630Z,1.81
2022-11-30T08:06:35.823Z,1.80
2022-11-30T08:09:04.544Z,1.95
2022-11-30T08:11:35.463Z,1.92
2022-11-30T08:14:04.582Z,1.97
2022-11-30T08:16:38.258Z,2.13
2022-11-30T08:19:06.123Z,2.06
2022-11-30T08:21:33.446Z,1.98
2022-11-30T08:24:01.228Z,1.96
2022-11-30T08:26:33.251Z,2.03
2022-11-30T08:29:02.171Z,2.16
2022-11-30T08:31:34.037Z,2.25
2022-11-30T08:34:09.779Z,2.36
2022-11-30T08:36:38.544Z,2.23
2022-11-30T08:39:09.398Z,2.12
2022-11-30T08:41:36.996Z,2.20
2022-11-30T08:44:05.036Z,2.32
2022-11-30T08:49:24.429Z,2.23
2022-11-30T08:54:46.093Z,2.23
2022-11-30T08:57:17.601Z,2.08
2022-11-30T08:59:46.068Z,1.88
2022-11-30T09:02:17.986Z,1.99
2022-11-30T09:04:49.474Z,1.94
2022-11-30T09:07:17.742Z,2.13
2022-11-30T09:09:45.464Z,2.12
2022-11-30T09:12:12.714Z,2.20
2022-11-30T09:14:40.233Z,2.14
2022-11-30T09:17:07.403Z,2.25
2022-11-30T09:19:34.824Z,2.22
2022-11-30T09:22:02.058Z,2.35
2022-11-30T09:24:29.658Z,2.28
2022-11-30T09:26:57.561Z,2.26
2022-11-30T09:29:25.118Z,2.30
2022-11-30T09:31:52.331Z,2.48
2022-11-30T09:34:20.020Z,2.52
2022-11-30T09:36:47.211Z,2.54
2022-11-30T09:39:14.686Z,2.65
2022-11-30T09:42:21.118Z,2.59
2022-11-30T09:45:03.128Z,2.71
2022-11-30T09:47:53.225Z,2.71
2022-11-30T09:50:29.415Z,2.92
2022-11-30T09:53:07.122Z,2.85
2022-11-30T09:55:42.107Z,2.98
2022-11-30T09:58:46.907Z,3.01
2022-11-30T10:01:20.259Z,3.21
2022-11-30T10:03:48.291Z,3.36
2022-11-30T10:06:34.714Z,3.12
2022-11-30T10:10:15.953Z,3.26
2022-11-30T10:12:50.897Z,3.41
2022-11-30T10:15:33.586Z,3.38
2022-11-30T10:18:31.058Z,3.24
2022-11-30T10:21:25.719Z,3.13
2022-11-30T10:24:19.293Z,3.05
2022-11-30T10:26:55.495Z,3.13
2022-11-30T10:29:26.325Z,3.13
2022-11-30T10:31:59.288Z,3.16
2022-11-30T10:34:35.969Z,3.36
2022-11-30T10:37:37.531Z,3.51
2022-11-30T10:40:25.377Z,3.73
2022-11-30T10:43:12.336Z,3.51
2022-11-30T10:45:48.832Z,3.57
2022-11-30T10:48:46.994Z,3.31
2022-11-30T10:51:15.094Z,3.16
2022-11-30T10:53:42.254Z,3.21
2022-11-30T10:56:12.543Z,3.36
2022-11-30T10:59:00.009Z,3.43
2022-11-30T11:01:38.231Z,3.50
2022-11-30T11:04:17.034Z,3.51
2022-11-30T11:07:11.301Z,3.65
2022-11-30T11:09:50.431Z,3.55
2022-11-30T11:12:31.046Z,3.44
2022-11-30T11:15:26.672Z,3.46
2022-11-30T11:18:21.578Z,3.53
2022-11-30T11:21:04.132Z,3.68
2022-11-30T11:23:39.499Z,3.81
2022-11-30T11:26:20.021Z,3.71
2022-11-30T11:28:51.381Z,3.68
2022-11-30T11:31:44.458Z,3.60
2022-11-30T11:34:34.945Z,3.62
2022-11-30T11:37:17.223Z,3.36
2022-11-30T11:40:02.554Z,3.38
2022-11-30T11:42:37.145Z,3.36
2022-11-30T11:45:06.544Z,3.39
2022-11-30T11:47:45.102Z,3.47
2022-11-30T11:50:12.547Z,3.54
2022-11-30T11:52:40.008Z,3.59
2022-11-30T11:55:17.983Z,3.57
2022-11-30T11:58:02.822Z,3.58
2022-11-30T12:00:31.516Z,3.65
2022-11-30T12:03:29.930Z,3.64
2022-11-30T12:06:05.577Z,3.73
2022-11-30T12:08:49.207Z,3.81
2022-11-30T12:11:27.725Z,3.87
2022-11-30T12:13:55.023Z,3.84
2022-11-30T12:17:20.067Z,3.75
2022-11-30T12:20:05.016Z,3.67
2022-11-30T12:23:21.919Z,3.68
2022-11-30T12:26:26.949Z,3.81
2022-11-30T12:29:23.347Z,3.69
2022-11-30T12:32:13.627Z,3.81
2022-11-30T12:34:56.129Z,3.92
2022-11-30T12:37:35.624Z,3.77
2022-11-30T12:40:51.746Z,3.62
2022-11-30T12:43:39.904Z,3.61
2022-11-30T12:46:56.387Z,3.70
2022-11-30T12:49:59.100Z,3.49
2022-11-30T12:52:54.221Z,3.24
2022-11-30T12:55:40.260Z,3.15
2022-11-30T12:58:58.878Z,3.16
2022-11-30T13:01:34.444Z,3.26
2022-11-30T13:04:19.484Z,3.10
2022-11-30T13:07:08.803Z,3.00
2022-11-30T13:09:56.504Z,3.14
2022-11-30T13:12:37.139Z,3.08
2022-11-30T13:15:22.871Z,2.83
2022-11-30T13:17:52.231Z,2.78
2022-11-30T13:20:45.333Z,2.69
2022-11-30T13:23:55.634Z,2.76
2022-11-30T13:26:37.599Z,2.82
2022-11-30T13:29:39.283Z,2.69
2022-11-30T13:32:48.653Z,2.70
2022-11-30T13:35:29.093Z,2.67
2022-11-30T13:38:36.282Z,2.83
2022-11-30T13:41:08.483Z,2.89
2022-11-30T13:43:45.651Z,2.80
2022-11-30T13:46:24.120Z,2.86
2022-11-30T13:49:18.422Z,2.74
2022-11-30T13:51:45.791Z,2.65
2022-11-30T13:54:54.544Z,2.66
2022-11-30T13:57:24.856Z,2.79
2022-11-30T13:59:54.012Z,2.51
2022-11-30T14:02:33.775Z,2.53
2022-11-30T14:05:16.792Z,2.44
2022-11-30T14:07:52.999Z,2.30
2022-11-30T14:10:33.805Z,2.54
2022-11-30T14:13:07.391Z,2.36
2022-11-30T14:15:41.867Z,2.27
2022-11-30T14:18:09.084Z,2.33
2022-11-30T14:20:53.705Z,2.39
2022-11-30T14:24:00.671Z,2.36
2022-11-30T14:26:41.963Z,2.06
2022-11-30T14:29:09.029Z,2.31
2022-11-30T14:31:48.575Z,2.11
2022-11-30T14:34:36.359Z,1.88
2022-11-30T14:37:16.203Z,1.85
2022-11-30T14:39:46.904Z,1.96
2022-11-30T14:42:27.779Z,2.12
2022-11-30T14:44:56.501Z,1.95
2022-11-30T14:47:30.038Z,1.86
2022-11-30T14:50:02.335Z,1.94
2022-11-30T14:52:44.123Z,1.85
2022-11-30T14:55:18.952Z,1.78
2022-11-30T14:58:32.638Z,1.83
2022-11-30T15:01:03.808Z,1.76
2022-11-30T15:03:40.436Z,1.95
2022-11-30T15:06:08.603Z,1.89
2022-11-30T15:08:44.328Z,1.79
2022-11-30T15:11:15.164Z,1.86
2022-11-30T15:13:49.126Z,1.81
2022-11-30T15:16:25.383Z,1.90
2022-11-30T15:18:56.312Z,1.97
2022-11-30T15:21:26.556Z,1.63
2022-11-30T15:24:00.753Z,1.81
2022-11-30T15:26:49.786Z,1.55
2022-11-30T15:29:40.717Z,1.52
2022-11-30T15:32:17.614Z,1.65
2022-11-30T15:34:54.871Z,1.63
2022-11-30T15:37:43.615Z,1.63
2022-11-30T15:40:26.815Z,1.64
2022-11-30T15:42:54.121Z,1.69
2022-11-30T15:45:36.253Z,1.72
2022-11-30T15:48:35.826Z,1.73
2022-11-30T15:51:03.782Z,1.75
2022-11-30T15:53:35.556Z,1.82
2022-11-30T15:56:09.097Z,1.94
2022-11-30T15:58:47.658Z,1.86
2022-11-30T16:01:24.807Z,1.92
2022-11-30T16:04:05.873Z,1.75
2022-11-30T16:06:51.552Z,1.73
2022-11-30T16:09:32.277Z,1.72
2022-11-30T16:12:02.535Z,1.77
2022-11-30T16:14:29.810Z,1.61
2022-11-30T16:16:57.780Z,1.66
2022-11-30T16:19:25.133Z,1.71
2022-11-30T16:21:52.759Z,1.83
2022-11-30T16:24:20.431Z,1.84
2022-11-30T16:26:51.880Z,1.96
2022-11-30T16:29:20.305Z,1.91
2022-11-30T16:31:47.935Z,1.91
2022-11-30T16:34:15.092Z,1.91
2022-11-30T16:36:42.542Z,2.03
2022-11-30T16:39:12.824Z,2.03
2022-11-30T16:41:40.439Z,1.96
2022-11-30T16:44:14.304Z,2.05
2022-11-30T16:46:42.126Z,1.94
2022-11-30T16:49:09.395Z,1.87
2022-11-30T16:51:37.475Z,1.76
2022-11-30T16:54:05.139Z,1.82
2022-11-30T16:56:33.335Z,1.76
2022-11-30T16:59:00.609Z,1.73
2022-11-30T17:01:43.847Z,1.81
2022-11-30T17:04:22.965Z,1.83
2022-11-30T17:06:57.220Z,1.86
2022-11-30T17:09:29.954Z,1.93
2022-11-30T17:11:57.538Z,1.84
2022-11-30T17:14:24.710Z,1.82
2022-11-30T17:16:52.305Z,1.77
2022-11-30T17:19:19.808Z,1.91
2022-11-30T17:21:48.435Z,1.90
2022-11-30T17:24:15.983Z,1.93
2022-11-30T17:26:43.772Z,1.95
2022-11-30T17:29:10.949Z,1.97
2022-11-30T17:31:38.454Z,1.98
2022-11-30T17:34:08.705Z,2.00
2022-11-30T17:36:36.285Z,2.08
2022-11-30T17:39:08.847Z,1.96
2022-11-30T17:41:36.362Z,1.98
2022-11-30T17:44:03.754Z,1.85
2022-11-30T17:46:31.366Z,1.96
2022-11-30T17:48:58.709Z,1.97
2022-11-30T17:51:26.332Z,1.93
2022-11-30T17:53:53.565Z,1.89
2022-11-30T17:56:21.076Z,1.92
2022-11-30T17:58:49.381Z,2.06
2022-11-30T18:01:20.632Z,1.89
2022-11-30T18:03:48.398Z,1.91
2022-11-30T18:06:16.907Z,1.96
2022-11-30T18:08:44.529Z,2.01
2022-11-30T18:11:17.346Z,1.90
2022-11-30T18:13:44.841Z,1.79
2022-11-30T18:16:19.259Z,1.75
2022-11-30T18:18:48.470Z,1.88
2022-11-30T18:21:20.589Z,1.77
2022-11-30T18:23:49.148Z,1.84
2022-11-30T18:26:23.010Z,1.84
2022-11-30T18:28:58.063Z,1.87
2022-11-30T18:31:27.941Z,1.95
2022-11-30T18:33:58.563Z,1.97
2022-11-30T18:36:26.711Z,1.88
2022-11-30T18:38:54.320Z,2.01
2022-11-30T18:41:22.320Z,1.86
2022-11-30T18:43:49.601Z,1.76
2022-11-30T18:46:17.137Z,1.81
2022-11-30T18:48:47.933Z,1.80
2022-11-30T18:51:34.378Z,1.87
2022-11-30T18:54:07.701Z,1.92
2022-11-30T18:56:38.261Z,1.91
2022-11-30T18:59:14.800Z,2.21
2022-11-30T19:01:42.710Z,2.06
2022-11-30T19:04:11.861Z,1.96
2022-11-30T19:06:42.143Z,1.96
2022-11-30T19:09:13.836Z,1.84
2022-11-30T19:11:42.834Z,1.93
2022-11-30T19:14:14.583Z,1.97
2022-11-30T19:16:43.014Z,1.88
2022-11-30T19:19:14.548Z,1.89
2022-11-30T19:21:48.028Z,2.05
2022-11-30T19:24:16.737Z,2.04
2022-11-30T19:26:44.240Z,2.05
2022-11-30T19:29:12.409Z,1.96
2022-11-30T19:31:40.284Z,1.97
2022-11-30T19:34:12.619Z,2.09
2022-11-30T19:36:41.881Z,2.11
2022-11-30T19:39:10.955Z,2.07
2022-11-30T19:41:39.313Z,2.15
2022-11-30T19:44:06.580Z,2.06
2022-11-30T19:46:34.922Z,2.13
2022-11-30T19:49:02.694Z,2.12
2022-11-30T19:51:31.950Z,2.11
2022-11-30T19:53:59.887Z,2.12
2022-11-30T19:56:32.313Z,2.07
2022-11-30T19:59:04.679Z,2.14
2022-11-30T20:01:34.161Z,2.11
2022-11-30T20:04:01.480Z,2.07
2022-11-30T20:06:36.095Z,2.15
2022-11-30T20:09:07.202Z,2.10
2022-11-30T20:11:35.376Z,2.02
2022-11-30T20:14:03.897Z,2.09
2022-11-30T20:16:31.629Z,2.16
2022-11-30T20:19:01.744Z,2.06
2022-11-30T20:21:36.192Z,2.08
2022-11-30T20:24:07.797Z,2.06
2022-11-30T20:26:42.987Z,2.10
2022-11-30T20:29:16.597Z,2.06
2022-11-30T20:31:47.587Z,2.19
2022-11-30T20:34:15.865Z,2.14
2022-11-30T20:36:43.769Z,2.18
2022-11-30T20:39:12.069Z,2.24
2022-11-30T20:41:39.824Z,2.17
2022-11-30T20:44:07.270Z,2.24
2022-11-30T20:46:36.158Z,2.37
2022-11-30T20:49:13.501Z,2.25
2022-11-30T20:51:41.237Z,2.30
2022-11-30T20:54:08.590Z,2.36
2022-11-30T20:56:38.184Z,2.40
2022-11-30T20:59:19.620Z,2.18
2022-11-30T21:01:47.427Z,2.35
2022-11-30T21:04:14.663Z,2.40
2022-11-30T21:06:45.574Z,2.48
2022-11-30T21:09:15.120Z,2.54
2022-11-30T21:11:43.714Z,2.52
2022-11-30T21:14:11.271Z,2.51
2022-11-30T21:16:39.805Z,2.48
2022-11-30T21:19:07.264Z,2.57
2022-11-30T21:21:35.829Z,2.42
2022-11-30T21:24:07.741Z,2.38
2022-11-30T21:26:42.497Z,2.43
2022-11-30T21:29:18.248Z,2.49
2022-11-30T21:31:46.285Z,2.46
2022-11-30T21:34:14.103Z,2.43
2022-11-30T21:36:42.643Z,2.41
2022-11-30T21:39:14.219Z,2.39
2022-11-30T21:41:42.258Z,2.41
2022-11-30T21:44:16.101Z,2.45
2022-11-30T21:46:46.543Z,2.27
2022-11-30T21:49:15.916Z,2.17
2022-11-30T21:51:44.108Z,2.20
2022-11-30T21:54:13.352Z,2.09
2022-11-30T21:56:43.777Z,2.10
2022-11-30T21:59:14.464Z,2.21
2022-11-30T22:01:43.998Z,2.20
2022-11-30T22:04:14.149Z,2.11
2022-11-30T22:06:43.378Z,2.26
2022-11-30T22:09:17.537Z,2.24
2022-11-30T22:11:45.748Z,2.16
2022-11-30T22:14:16.867Z,2.15
2022-11-30T22:16:45.332Z,2.18
2022-11-30T22:19:15.796Z,2.05
2022-11-30T22:21:49.405Z,2.01
2022-11-30T22:24:17.577Z,2.24
2022-11-30T22:26:46.737Z,2.12
2022-11-30T22:29:21.263Z,2.11
2022-11-30T22:31:53.414Z,1.96
2022-11-30T22:34:21.449Z,2.01
2022-11-30T22:36:48.998Z,2.01
2022-11-30T22:39:21.816Z,1.96
2022-11-30T22:41:55.150Z,1.92
2022-11-30T22:44:25.747Z,1.86
2022-11-30T22:46:59.846Z,2.02
2022-11-30T22:49:27.155Z,2.06
2022-11-30T22:51:54.600Z,2.12
2022-11-30T22:54:21.909Z,2.06
2022-11-30T22:56:49.423Z,1.87
2022-11-30T22:59:16.792Z,1.95
2022-11-30T23:01:49.788Z,1.91
2022-11-30T23:04:20.191Z,1.85
2022-11-30T23:06:49.980Z,1.95
2022-11-30T23:09:22.939Z,2.00
2022-11-30T23:11:52.112Z,2.07
2022-11-30T23:14:19.937Z,2.11
2022-11-30T23:16:48.064Z,2.16
2022-11-30T23:19:16.103Z,2.17
2022-11-30T23:21:45.448Z,2.29
2022-11-30T23:24:18.034Z,2.34
2022-11-30T23:26:46.107Z,2.46
2022-11-30T23:29:16.095Z,2.56
2022-11-30T23:31:45.527Z,2.50
2022-11-30T23:34:20.027Z,2.56
2022-11-30T23:36:49.216Z,2.56
2022-11-30T23:39:19.722Z,2.55
2022-11-30T23:41:47.687Z,2.63
2022-11-30T23:44:15.240Z,2.66
2022-11-30T23:46:42.827Z,2.72
2022-11-30T23:49:13.536Z,2.73
2022-11-30T23:51:42.247Z,2.75
2022-11-30T23:54:09.504Z,2.67
2022-11-30T23:56:37.037Z,2.71
2022-11-30T23:59:04.206Z,2.61
